East Ely, Nevada
Current Conditions -  °F | °C
As of 2:53 PM on Thursday 27 Nov 2014 (Local Time) from KELY Reporting Station
Clear Clear  
Wind Chill: 61°   Ceiling: Unl
Heat Index: 61°   Visibility: 10mi
Dew Point: 11°   Wind: 3mph
Humidity: 14%   Direction: NA
Pressure: 30.27"   Gusts: NA
Location:  39.25°N, 114.87°W
Report Text: KELY 272253Z AUTO VRB03KT 10SM CLR 16/M12 A3027 RMK AO2 SLP214 T01611117
Loading
Personal Weather Stations






























Interactive Weather Map New forecast layout! Learn more

10-Day Weather Forecast

Advertisements
Track Severe Weather on mobile